sensor_id;sensor_type;location;lat;lon;timestamp;pressure;altitude;pressure_sealevel;temperature;humidity
19128;BME280;9696;53.686;10.094;2023-08-31T00:00:34;100288.22;;;13.74;100.00
19128;BME280;9696;53.686;10.094;2023-08-31T00:03:04;100284.28;;;13.70;100.00
19128;BME280;9696;53.686;10.094;2023-08-31T00:05:37;100294.00;;;13.78;100.00
19128;BME280;9696;53.686;10.094;2023-08-31T00:08:08;100286.91;;;13.70;100.00
19128;BME280;9696;53.686;10.094;2023-08-31T00:10:40;100282.97;;;13.74;100.00
19128;BME280;9696;53.686;10.094;2023-08-31T00:13:09;100282.63;;;13.77;100.00
19128;BME280;9696;53.686;10.094;2023-08-31T00:15:40;100281.63;;;13.70;100.00
19128;BME280;9696;53.686;10.094;2023-08-31T00:18:09;100283.09;;;13.73;100.00
19128;BME280;9696;53.686;10.094;2023-08-31T00:20:40;100279.50;;;13.65;100.00
19128;BME280;9696;53.686;10.094;2023-08-31T00:23:09;100272.41;;;13.58;100.00
19128;BME280;9696;53.686;10.094;2023-08-31T00:25:40;100274.84;;;13.67;100.00
19128;BME280;9696;53.686;10.094;2023-08-31T00:28:11;100269.44;;;13.61;100.00
19128;BME280;9696;53.686;10.094;2023-08-31T00:30:43;100276.50;;;13.60;100.00
19128;BME280;9696;53.686;10.094;2023-08-31T00:33:14;100269.09;;;13.56;100.00
19128;BME280;9696;53.686;10.094;2023-08-31T00:35:43;100276.00;;;13.57;100.00
19128;BME280;9696;53.686;10.094;2023-08-31T00:38:14;100271.91;;;13.62;100.00
19128;BME280;9696;53.686;10.094;2023-08-31T00:40:44;100269.91;;;13.64;100.00
19128;BME280;9696;53.686;10.094;2023-08-31T00:43:14;100271.72;;;13.64;100.00
19128;BME280;9696;53.686;10.094;2023-08-31T00:45:46;100273.72;;;13.62;100.00
19128;BME280;9696;53.686;10.094;2023-08-31T00:48:17;100275.19;;;13.56;100.00
19128;BME280;9696;53.686;10.094;2023-08-31T00:50:47;100283.09;;;13.56;100.00
19128;BME280;9696;53.686;10.094;2023-08-31T00:53:17;100274.53;;;13.54;100.00
19128;BME280;9696;53.686;10.094;2023-08-31T00:55:48;100284.41;;;13.52;100.00
19128;BME280;9696;53.686;10.094;2023-08-31T00:58:17;100281.28;;;13.49;100.00
19128;BME280;9696;53.686;10.094;2023-08-31T01:00:54;100279.97;;;13.53;100.00
19128;BME280;9696;53.686;10.094;2023-08-31T01:03:35;100289.50;;;13.38;100.00
19128;BME280;9696;53.686;10.094;2023-08-31T01:06:13;100283.25;;;13.39;100.00
19128;BME280;9696;53.686;10.094;2023-08-31T01:08:53;100280.09;;;13.43;100.00
19128;BME280;9696;53.686;10.094;2023-08-31T01:11:31;100274.19;;;13.41;100.00
19128;BME280;9696;53.686;10.094;2023-08-31T01:14:09;100276.13;;;13.39;100.00
19128;BME280;9696;53.686;10.094;2023-08-31T01:16:42;100288.31;;;13.32;100.00
19128;BME280;9696;53.686;10.094;2023-08-31T01:19:22;100301.94;;;13.19;100.00
19128;BME280;9696;53.686;10.094;2023-08-31T01:22:00;100295.91;;;13.27;100.00
19128;BME280;9696;53.686;10.094;2023-08-31T01:24:34;100303.09;;;13.17;100.00
19128;BME280;9696;53.686;10.094;2023-08-31T01:27:04;100302.13;;;13.18;100.00
19128;BME280;9696;53.686;10.094;2023-08-31T01:29:34;100298.97;;;13.14;100.00
19128;BME280;9696;53.686;10.094;2023-08-31T01:32:06;100291.66;;;13.08;100.00
19128;BME280;9696;53.686;10.094;2023-08-31T01:34:37;100295.78;;;13.03;100.00
19128;BME280;9696;53.686;10.094;2023-08-31T01:37:14;100294.59;;;12.97;100.00
19128;BME280;9696;53.686;10.094;2023-08-31T01:39:54;100296.38;;;12.89;100.00
19128;BME280;9696;53.686;10.094;2023-08-31T01:42:26;100293.75;;;12.97;100.00
19128;BME280;9696;53.686;10.094;2023-08-31T01:44:57;100290.63;;;12.93;100.00
19128;BME280;9696;53.686;10.094;2023-08-31T01:47:28;100293.41;;;12.84;100.00
19128;BME280;9696;53.686;10.094;2023-08-31T01:49:57;100298.84;;;12.90;100.00
19128;BME280;9696;53.686;10.094;2023-08-31T01:52:27;100309.94;;;12.76;100.00
19128;BME280;9696;53.686;10.094;2023-08-31T01:54:57;100308.16;;;12.76;100.00
19128;BME280;9696;53.686;10.094;2023-08-31T01:57:27;100299.75;;;12.73;100.00
19128;BME280;9696;53.686;10.094;2023-08-31T02:00:09;100315.38;;;12.74;100.00
19128;BME280;9696;53.686;10.094;2023-08-31T02:02:41;100317.34;;;12.72;100.00
19128;BME280;9696;53.686;10.094;2023-08-31T02:05:11;100319.78;;;12.66;100.00
19128;BME280;9696;53.686;10.094;2023-08-31T02:07:40;100316.59;;;12.54;100.00
19128;BME280;9696;53.686;10.094;2023-08-31T02:10:10;100318.91;;;12.57;100.00
19128;BME280;9696;53.686;10.094;2023-08-31T02:12:43;100313.53;;;12.41;100.00
19128;BME280;9696;53.686;10.094;2023-08-31T02:15:12;100313.25;;;12.44;100.00
19128;BME280;9696;53.686;10.094;2023-08-31T02:17:41;100307.94;;;12.36;100.00
19128;BME280;9696;53.686;10.094;2023-08-31T02:20:11;100310.84;;;12.33;100.00
19128;BME280;9696;53.686;10.094;2023-08-31T02:22:42;100323.50;;;12.29;100.00
19128;BME280;9696;53.686;10.094;2023-08-31T02:25:12;100317.25;;;12.31;100.00
19128;BME280;9696;53.686;10.094;2023-08-31T02:27:41;100318.41;;;12.28;100.00
19128;BME280;9696;53.686;10.094;2023-08-31T02:30:11;100324.25;;;12.22;100.00
19128;BME280;9696;53.686;10.094;2023-08-31T02:32:40;100324.94;;;12.24;100.00
19128;BME280;9696;53.686;10.094;2023-08-31T02:35:14;100317.34;;;12.21;100.00
19128;BME280;9696;53.686;10.094;2023-08-31T02:37:43;100319.09;;;12.12;100.00
19128;BME280;9696;53.686;10.094;2023-08-31T02:40:14;100321.03;;;12.10;100.00
19128;BME280;9696;53.686;10.094;2023-08-31T02:42:43;100315.28;;;12.07;100.00
19128;BME280;9696;53.686;10.094;2023-08-31T02:45:15;100319.38;;;12.09;100.00
19128;BME280;9696;53.686;10.094;2023-08-31T02:47:45;100314.22;;;12.00;100.00
19128;BME280;9696;53.686;10.094;2023-08-31T02:50:15;100316.34;;;11.96;100.00
19128;BME280;9696;53.686;10.094;2023-08-31T02:52:44;100319.50;;;12.00;100.00
19128;BME280;9696;53.686;10.094;2023-08-31T02:55:15;100320.47;;;11.99;100.00
19128;BME280;9696;53.686;10.094;2023-08-31T02:57:44;100328.13;;;11.92;100.00
19128;BME280;9696;53.686;10.094;2023-08-31T03:00:14;100323.53;;;11.94;100.00
19128;BME280;9696;53.686;10.094;2023-08-31T03:02:44;100334.22;;;11.93;100.00
19128;BME280;9696;53.686;10.094;2023-08-31T03:05:13;100334.22;;;11.75;100.00
19128;BME280;9696;53.686;10.094;2023-08-31T03:07:43;100340.28;;;11.75;100.00
19128;BME280;9696;53.686;10.094;2023-08-31T03:10:14;100342.31;;;11.81;100.00
19128;BME280;9696;53.686;10.094;2023-08-31T03:12:44;100345.84;;;11.72;100.00
19128;BME280;9696;53.686;10.094;2023-08-31T03:15:16;100336.97;;;11.73;100.00
19128;BME280;9696;53.686;10.094;2023-08-31T03:17:45;100340.28;;;11.75;100.00
19128;BME280;9696;53.686;10.094;2023-08-31T03:20:14;100343.13;;;11.64;100.00
19128;BME280;9696;53.686;10.094;2023-08-31T03:22:43;100347.66;;;11.72;100.00
19128;BME280;9696;53.686;10.094;2023-08-31T03:25:14;100344.22;;;11.62;100.00
19128;BME280;9696;53.686;10.094;2023-08-31T03:27:43;100335.06;;;11.66;100.00
19128;BME280;9696;53.686;10.094;2023-08-31T03:30:13;100337.09;;;11.54;100.00
19128;BME280;9696;53.686;10.094;2023-08-31T03:32:42;100349.13;;;11.57;100.00
19128;BME280;9696;53.686;10.094;2023-08-31T03:35:12;100348.88;;;11.50;100.00
19128;BME280;9696;53.686;10.094;2023-08-31T03:37:41;100354.56;;;11.46;100.00
19128;BME280;9696;53.686;10.094;2023-08-31T03:40:10;100354.84;;;11.43;100.00
19128;BME280;9696;53.686;10.094;2023-08-31T03:42:41;100350.59;;;11.42;100.00
19128;BME280;9696;53.686;10.094;2023-08-31T03:45:10;100346.44;;;11.39;100.00
19128;BME280;9696;53.686;10.094;2023-08-31T03:47:40;100347.56;;;11.37;100.00
19128;BME280;9696;53.686;10.094;2023-08-31T03:50:09;100354.94;;;11.33;100.00
19128;BME280;9696;53.686;10.094;2023-08-31T03:52:39;100353.94;;;11.34;100.00
19128;BME280;9696;53.686;10.094;2023-08-31T03:55:09;100356.19;;;11.29;100.00
19128;BME280;9696;53.686;10.094;2023-08-31T03:57:40;100366.25;;;11.33;100.00
19128;BME280;9696;53.686;10.094;2023-08-31T04:00:15;100355.09;;;11.22;100.00
19128;BME280;9696;53.686;10.094;2023-08-31T04:02:45;100358.41;;;11.24;100.00
19128;BME280;9696;53.686;10.094;2023-08-31T04:05:18;100361.28;;;11.30;100.00
19128;BME280;9696;53.686;10.094;2023-08-31T04:07:47;100359.25;;;11.24;100.00
19128;BME280;9696;53.686;10.094;2023-08-31T04:10:16;100356.09;;;11.21;100.00
19128;BME280;9696;53.686;10.094;2023-08-31T04:12:48;100362.31;;;11.20;100.00
19128;BME280;9696;53.686;10.094;2023-08-31T04:15:17;100362.59;;;11.17;100.00
19128;BME280;9696;53.686;10.094;2023-08-31T04:17:46;100365.38;;;11.15;100.00
19128;BME280;9696;53.686;10.094;2023-08-31T04:20:18;100367.75;;;11.09;100.00
19128;BME280;9696;53.686;10.094;2023-08-31T04:22:47;100358.91;;;11.10;100.00
19128;BME280;9696;53.686;10.094;2023-08-31T04:25:16;100364.72;;;11.04;100.00
19128;BME280;9696;53.686;10.094;2023-08-31T04:27:47;100364.31;;;10.99;100.00
19128;BME280;9696;53.686;10.094;2023-08-31T04:30:16;100370.41;;;10.99;100.00
19128;BME280;9696;53.686;10.094;2023-08-31T04:32:46;100362.53;;;10.99;100.00
19128;BME280;9696;53.686;10.094;2023-08-31T04:35:16;100370.56;;;10.98;100.00
19128;BME280;9696;53.686;10.094;2023-08-31T04:37:45;100370.94;;;11.03;100.00
19128;BME280;9696;53.686;10.094;2023-08-31T04:40:14;100375.81;;;10.98;100.00
19128;BME280;9696;53.686;10.094;2023-08-31T04:42:44;100378.69;;;10.95;100.00
19128;BME280;9696;53.686;10.094;2023-08-31T04:45:14;100386.31;;;10.98;100.00
19128;BME280;9696;53.686;10.094;2023-08-31T04:47:43;100390.56;;;10.99;100.00
19128;BME280;9696;53.686;10.094;2023-08-31T04:50:13;100391.03;;;10.94;100.00
19128;BME280;9696;53.686;10.094;2023-08-31T04:52:42;100399.16;;;11.01;100.00
19128;BME280;9696;53.686;10.094;2023-08-31T04:55:13;100402.16;;;11.06;100.00
19128;BME280;9696;53.686;10.094;2023-08-31T04:57:42;100407.00;;;11.01;100.00
19128;BME280;9696;53.686;10.094;2023-08-31T05:00:14;100405.34;;;11.00;100.00
19128;BME280;9696;53.686;10.094;2023-08-31T05:02:43;100405.34;;;11.00;100.00
19128;BME280;9696;53.686;10.094;2023-08-31T05:05:13;100409.94;;;10.98;100.00
19128;BME280;9696;53.686;10.094;2023-08-31T05:07:42;100421.41;;;10.97;100.00
19128;BME280;9696;53.686;10.094;2023-08-31T05:10:12;100416.97;;;10.97;100.00
19128;BME280;9696;53.686;10.094;2023-08-31T05:12:41;100421.94;;;11.00;100.00
19128;BME280;9696;53.686;10.094;2023-08-31T05:15:10;100425.09;;;11.04;100.00
19128;BME280;9696;53.686;10.094;2023-08-31T05:17:41;100418.88;;;11.05;100.00
19128;BME280;9696;53.686;10.094;2023-08-31T05:20:10;100420.66;;;11.14;100.00
19128;BME280;9696;53.686;10.094;2023-08-31T05:22:40;100424.25;;;11.13;100.00
19128;BME280;9696;53.686;10.094;2023-08-31T05:25:09;100430.88;;;11.17;100.00
19128;BME280;9696;53.686;10.094;2023-08-31T05:27:39;100438.25;;;11.31;100.00
19128;BME280;9696;53.686;10.094;2023-08-31T05:30:08;100425.97;;;11.31;100.00
19128;BME280;9696;53.686;10.094;2023-08-31T05:32:37;100433.41;;;11.36;100.00
19128;BME280;9696;53.686;10.094;2023-08-31T05:35:08;100431.44;;;11.38;100.00
19128;BME280;9696;53.686;10.094;2023-08-31T05:37:37;100437.63;;;11.47;100.00
19128;BME280;9696;53.686;10.094;2023-08-31T05:40:08;100437.06;;;11.53;100.00
19128;BME280;9696;53.686;10.094;2023-08-31T05:42:38;100436.38;;;11.78;100.00
19128;BME280;9696;53.686;10.094;2023-08-31T05:45:08;100429.38;;;11.96;100.00
19128;BME280;9696;53.686;10.094;2023-08-31T05:47:38;100429.38;;;12.32;100.00
19128;BME280;9696;53.686;10.094;2023-08-31T05:50:09;100417.06;;;11.97;100.00
19128;BME280;9696;53.686;10.094;2023-08-31T05:52:38;100423.59;;;11.93;100.00
19128;BME280;9696;53.686;10.094;2023-08-31T05:55:11;100419.38;;;12.00;100.00
19128;BME280;9696;53.686;10.094;2023-08-31T05:57:40;100420.44;;;12.07;100.00
19128;BME280;9696;53.686;10.094;2023-08-31T06:00:10;100409.16;;;12.14;100.00
19128;BME280;9696;53.686;10.094;2023-08-31T06:02:41;100419.75;;;12.84;100.00
19128;BME280;9696;53.686;10.094;2023-08-31T06:05:12;100418.19;;;12.73;100.00
19128;BME280;9696;53.686;10.094;2023-08-31T06:07:44;100416.84;;;12.95;100.00
19128;BME280;9696;53.686;10.094;2023-08-31T06:10:13;100417.22;;;13.26;100.00
19128;BME280;9696;53.686;10.094;2023-08-31T06:12:43;100410.28;;;13.58;100.00
19128;BME280;9696;53.686;10.094;2023-08-31T06:15:12;100416.53;;;13.23;100.00
19128;BME280;9696;53.686;10.094;2023-08-31T06:17:43;100412.72;;;13.60;100.00
19128;BME280;9696;53.686;10.094;2023-08-31T06:20:13;100415.19;;;12.94;100.00
19128;BME280;9696;53.686;10.094;2023-08-31T06:22:42;100416.19;;;12.67;100.00
19128;BME280;9696;53.686;10.094;2023-08-31T06:25:12;100423.84;;;12.60;100.00
19128;BME280;9696;53.686;10.094;2023-08-31T06:27:43;100427.53;;;12.67;100.00
19128;BME280;9696;53.686;10.094;2023-08-31T06:30:12;100431.19;;;12.74;100.00
19128;BME280;9696;53.686;10.094;2023-08-31T06:32:44;100423.03;;;12.86;100.00
19128;BME280;9696;53.686;10.094;2023-08-31T06:35:15;100427.22;;;12.96;100.00
19128;BME280;9696;53.686;10.094;2023-08-31T06:37:46;100426.19;;;12.89;100.00
19128;BME280;9696;53.686;10.094;2023-08-31T06:40:15;100417.81;;;12.94;100.00
19128;BME280;9696;53.686;10.094;2023-08-31T06:42:44;100415.78;;;13.31;100.00
19128;BME280;9696;53.686;10.094;2023-08-31T06:45:13;100415.25;;;13.69;100.00
19128;BME280;9696;53.686;10.094;2023-08-31T06:47:42;100417.75;;;13.95;100.00
19128;BME280;9696;53.686;10.094;2023-08-31T06:50:11;100411.94;;;14.42;100.00
19128;BME280;9696;53.686;10.094;2023-08-31T06:52:42;100417.03;;;14.59;100.00
19128;BME280;9696;53.686;10.094;2023-08-31T06:55:14;100408.75;;;14.38;100.00
19128;BME280;9696;53.686;10.094;2023-08-31T06:57:43;100403.47;;;14.54;100.00
19128;BME280;9696;53.686;10.094;2023-08-31T07:00:14;100415.06;;;14.45;100.00
19128;BME280;9696;53.686;10.094;2023-08-31T07:02:43;100410.31;;;15.20;100.00
19128;BME280;9696;53.686;10.094;2023-08-31T07:05:13;100413.78;;;15.21;100.00
19128;BME280;9696;53.686;10.094;2023-08-31T07:07:43;100416.41;;;15.21;100.00
19128;BME280;9696;53.686;10.094;2023-08-31T07:10:13;100423.25;;;14.83;100.00
19128;BME280;9696;53.686;10.094;2023-08-31T07:12:42;100423.59;;;14.31;100.00
19128;BME280;9696;53.686;10.094;2023-08-31T07:15:11;100436.16;;;14.37;100.00
19128;BME280;9696;53.686;10.094;2023-08-31T07:17:40;100434.34;;;14.38;100.00
19128;BME280;9696;53.686;10.094;2023-08-31T07:20:11;100423.25;;;14.83;100.00
19128;BME280;9696;53.686;10.094;2023-08-31T07:22:40;100421.88;;;15.11;100.00
19128;BME280;9696;53.686;10.094;2023-08-31T07:25:11;100428.47;;;15.15;100.00
19128;BME280;9696;53.686;10.094;2023-08-31T07:27:41;100418.28;;;15.04;100.00
19128;BME280;9696;53.686;10.094;2023-08-31T07:30:10;100420.44;;;15.00;100.00
19128;BME280;9696;53.686;10.094;2023-08-31T07:32:39;100428.22;;;15.41;100.00
19128;BME280;9696;53.686;10.094;2023-08-31T07:35:09;100426.72;;;15.46;100.00
19128;BME280;9696;53.686;10.094;2023-08-31T07:37:38;100424.50;;;15.19;100.00
19128;BME280;9696;53.686;10.094;2023-08-31T07:40:10;100419.94;;;14.97;100.00
19128;BME280;9696;53.686;10.094;2023-08-31T07:42:40;100415.09;;;15.94;100.00
19128;BME280;9696;53.686;10.094;2023-08-31T07:45:09;100416.19;;;15.77;100.00
19128;BME280;9696;53.686;10.094;2023-08-31T07:47:39;100422.44;;;15.37;100.00
19128;BME280;9696;53.686;10.094;2023-08-31T07:50:09;100421.22;;;16.18;100.00
19128;BME280;9696;53.686;10.094;2023-08-31T07:52:38;100422.91;;;15.88;100.00
19128;BME280;9696;53.686;10.094;2023-08-31T07:55:09;100415.69;;;16.04;100.00
19128;BME280;9696;53.686;10.094;2023-08-31T07:57:38;100419.16;;;16.28;100.00
19128;BME280;9696;53.686;10.094;2023-08-31T08:00:08;100418.03;;;16.68;100.00
19128;BME280;9696;53.686;10.094;2023-08-31T08:02:41;100421.56;;;15.92;100.00
19128;BME280;9696;53.686;10.094;2023-08-31T08:05:10;100424.50;;;15.66;100.00
19128;BME280;9696;53.686;10.094;2023-08-31T08:07:39;100415.81;;;16.57;100.00
19128;BME280;9696;53.686;10.094;2023-08-31T08:10:12;100422.03;;;16.64;100.00
19128;BME280;9696;53.686;10.094;2023-08-31T08:12:43;100432.28;;;15.98;100.00
19128;BME280;9696;53.686;10.094;2023-08-31T08:15:13;100430.16;;;15.63;100.00
19128;BME280;9696;53.686;10.094;2023-08-31T08:17:42;100434.97;;;15.60;100.00
19128;BME280;9696;53.686;10.094;2023-08-31T08:20:12;100429.88;;;16.12;100.00
19128;BME280;9696;53.686;10.094;2023-08-31T08:22:41;100431.59;;;16.27;100.00
19128;BME280;9696;53.686;10.094;2023-08-31T08:25:12;100433.16;;;16.96;100.00
19128;BME280;9696;53.686;10.094;2023-08-31T08:27:41;100434.28;;;16.65;100.00
19128;BME280;9696;53.686;10.094;2023-08-31T08:30:11;100444.97;;;16.03;100.00
19128;BME280;9696;53.686;10.094;2023-08-31T08:32:40;100445.94;;;16.93;100.00
19128;BME280;9696;53.686;10.094;2023-08-31T08:35:09;100449.28;;;15.96;100.00
19128;BME280;9696;53.686;10.094;2023-08-31T08:37:38;100447.22;;;16.14;100.00
19128;BME280;9696;53.686;10.094;2023-08-31T08:40:09;100445.66;;;15.97;100.00
19128;BME280;9696;53.686;10.094;2023-08-31T08:42:42;100444.97;;;16.03;100.00
19128;BME280;9696;53.686;10.094;2023-08-31T08:45:14;100446.34;;;15.68;100.00
19128;BME280;9696;53.686;10.094;2023-08-31T08:47:44;100454.59;;;15.02;100.00
19128;BME280;9696;53.686;10.094;2023-08-31T08:50:15;100459.16;;;15.32;100.00
19128;BME280;9696;53.686;10.094;2023-08-31T08:52:46;100459.91;;;15.57;100.00
19128;BME280;9696;53.686;10.094;2023-08-31T08:55:15;100452.28;;;16.46;100.00
19128;BME280;9696;53.686;10.094;2023-08-31T08:57:46;100448.91;;;16.75;100.00
19128;BME280;9696;53.686;10.094;2023-08-31T09:00:16;100458.13;;;17.02;100.00
19128;BME280;9696;53.686;10.094;2023-08-31T09:02:45;100450.81;;;17.33;100.00
19128;BME280;9696;53.686;10.094;2023-08-31T09:05:14;100451.66;;;17.99;100.00
19128;BME280;9696;53.686;10.094;2023-08-31T09:08:03;100452.41;;;17.57;100.00
19128;BME280;9696;53.686;10.094;2023-08-31T09:10:36;100456.13;;;17.63;100.00
19128;BME280;9696;53.686;10.094;2023-08-31T09:13:08;100463.56;;;18.03;100.00
19128;BME280;9696;53.686;10.094;2023-08-31T09:15:40;100460.50;;;17.26;100.00
19128;BME280;9696;53.686;10.094;2023-08-31T09:18:15;100464.31;;;17.82;100.00
19128;BME280;9696;53.686;10.094;2023-08-31T09:20:47;100466.78;;;18.56;100.00
19128;BME280;9696;53.686;10.094;2023-08-31T09:23:18;100468.47;;;17.41;100.00
19128;BME280;9696;53.686;10.094;2023-08-31T09:25:47;100467.09;;;18.10;100.00
19128;BME280;9696;53.686;10.094;2023-08-31T09:28:20;100467.81;;;17.54;100.00
19128;BME280;9696;53.686;10.094;2023-08-31T09:30:50;100466.16;;;17.53;100.00
19128;BME280;9696;53.686;10.094;2023-08-31T09:33:21;100473.25;;;16.79;100.00
19128;BME280;9696;53.686;10.094;2023-08-31T09:35:51;100472.91;;;16.59;100.00
19128;BME280;9696;53.686;10.094;2023-08-31T09:38:20;100473.38;;;16.09;100.00
19128;BME280;9696;53.686;10.094;2023-08-31T09:40:50;100468.75;;;16.79;100.00
19128;BME280;9696;53.686;10.094;2023-08-31T09:43:22;100473.50;;;15.85;100.00
19128;BME280;9696;53.686;10.094;2023-08-31T09:45:52;100472.09;;;16.28;100.00
19128;BME280;9696;53.686;10.094;2023-08-31T09:48:23;100478.94;;;16.45;100.00
19128;BME280;9696;53.686;10.094;2023-08-31T09:50:53;100481.53;;;16.76;100.00
19128;BME280;9696;53.686;10.094;2023-08-31T09:53:24;100470.38;;;16.66;100.00
19128;BME280;9696;53.686;10.094;2023-08-31T09:55:57;100470.00;;;17.79;100.00
19128;BME280;9696;53.686;10.094;2023-08-31T09:58:28;100474.47;;;17.06;100.00
19128;BME280;9696;53.686;10.094;2023-08-31T10:00:59;100464.91;;;17.34;100.00
19128;BME280;9696;53.686;10.094;2023-08-31T10:03:30;100468.56;;;17.33;100.00
19128;BME280;9696;53.686;10.094;2023-08-31T10:06:00;100466.63;;;17.27;100.00
19128;BME280;9696;53.686;10.094;2023-08-31T10:08:30;100478.50;;;17.16;100.00
19128;BME280;9696;53.686;10.094;2023-08-31T10:11:00;100470.66;;;16.71;100.00
19128;BME280;9696;53.686;10.094;2023-08-31T10:13:33;100475.41;;;16.75;100.00
19128;BME280;9696;53.686;10.094;2023-08-31T10:16:05;100479.06;;;15.98;100.00
19128;BME280;9696;53.686;10.094;2023-08-31T10:18:35;100484.69;;;15.64;100.00
19128;BME280;9696;53.686;10.094;2023-08-31T10:21:04;100483.91;;;15.86;100.00
19128;BME280;9696;53.686;10.094;2023-08-31T10:23:34;100475.91;;;16.48;100.00
19128;BME280;9696;53.686;10.094;2023-08-31T10:26:06;100486.75;;;16.84;100.00
19128;BME280;9696;53.686;10.094;2023-08-31T10:28:43;100478.38;;;17.98;100.00
19128;BME280;9696;53.686;10.094;2023-08-31T10:31:17;100477.09;;;17.94;100.00
19128;BME280;9696;53.686;10.094;2023-08-31T10:33:47;100481.38;;;17.59;100.00
19128;BME280;9696;53.686;10.094;2023-08-31T10:36:33;100476.88;;;17.88;100.00
19128;BME280;9696;53.686;10.094;2023-08-31T10:39:07;100478.59;;;18.17;100.00
19128;BME280;9696;53.686;10.094;2023-08-31T10:41:40;100485.28;;;17.48;100.00
19128;BME280;9696;53.686;10.094;2023-08-31T10:44:20;100488.13;;;16.80;100.00
19128;BME280;9696;53.686;10.094;2023-08-31T10:46:50;100488.31;;;16.78;100.00
19128;BME280;9696;53.686;10.094;2023-08-31T10:49:22;100475.66;;;17.47;100.00
19128;BME280;9696;53.686;10.094;2023-08-31T10:51:55;100480.50;;;18.59;100.00
19128;BME280;9696;53.686;10.094;2023-08-31T10:54:26;100482.22;;;18.31;100.00
19128;BME280;9696;53.686;10.094;2023-08-31T10:57:05;100478.78;;;18.52;100.00
19128;BME280;9696;53.686;10.094;2023-08-31T10:59:47;100486.47;;;17.31;100.00
19128;BME280;9696;53.686;10.094;2023-08-31T11:02:34;100489.47;;;17.28;100.00
19128;BME280;9696;53.686;10.094;2023-08-31T11:05:09;100492.31;;;16.74;100.00
19128;BME280;9696;53.686;10.094;2023-08-31T11:07:39;100486.97;;;16.51;100.00
19128;BME280;9696;53.686;10.094;2023-08-31T11:10:11;100481.84;;;16.58;100.00
19128;BME280;9696;53.686;10.094;2023-08-31T11:12:40;100490.59;;;17.33;100.00
19128;BME280;9696;53.686;10.094;2023-08-31T11:15:13;100490.13;;;16.55;100.00
19128;BME280;9696;53.686;10.094;2023-08-31T11:17:43;100485.19;;;17.41;100.00
19128;BME280;9696;53.686;10.094;2023-08-31T11:20:17;100482.13;;;18.03;100.00
19128;BME280;9696;53.686;10.094;2023-08-31T11:22:48;100477.41;;;18.56;100.00
19128;BME280;9696;53.686;10.094;2023-08-31T11:25:18;100470.19;;;18.99;100.00
19128;BME280;9696;53.686;10.094;2023-08-31T11:27:55;100476.22;;;18.44;100.00
19128;BME280;9696;53.686;10.094;2023-08-31T11:30:27;100481.91;;;17.83;100.00
19128;BME280;9696;53.686;10.094;2023-08-31T11:33:02;100490.53;;;16.89;100.00
19128;BME280;9696;53.686;10.094;2023-08-31T11:35:33;100494.66;;;17.07;100.00
19128;BME280;9696;53.686;10.094;2023-08-31T11:38:04;100491.28;;;18.36;100.00
19128;BME280;9696;53.686;10.094;2023-08-31T11:40:34;100486.13;;;18.71;100.00
19128;BME280;9696;53.686;10.094;2023-08-31T11:43:05;100485.22;;;19.13;100.00
19128;BME280;9696;53.686;10.094;2023-08-31T11:45:36;100489.09;;;19.10;100.00
19128;BME280;9696;53.686;10.094;2023-08-31T11:48:07;100485.78;;;18.80;100.00
19128;BME280;9696;53.686;10.094;2023-08-31T11:50:37;100491.59;;;17.91;100.00
19128;BME280;9696;53.686;10.094;2023-08-31T11:53:08;100489.31;;;17.59;100.00
19128;BME280;9696;53.686;10.094;2023-08-31T11:55:49;100499.03;;;18.74;100.00
19128;BME280;9696;53.686;10.094;2023-08-31T11:58:19;100498.06;;;18.03;100.00
19128;BME280;9696;53.686;10.094;2023-08-31T12:00:57;100499.03;;;19.29;100.00
19128;BME280;9696;53.686;10.094;2023-08-31T12:03:27;100502.78;;;19.07;100.00
19128;BME280;9696;53.686;10.094;2023-08-31T12:06:18;100502.53;;;19.30;100.00
19128;BME280;9696;53.686;10.094;2023-08-31T12:08:48;100503.47;;;18.31;100.00
19128;BME280;9696;53.686;10.094;2023-08-31T12:11:19;100515.63;;;18.04;100.00
19128;BME280;9696;53.686;10.094;2023-08-31T12:13:50;100513.50;;;19.20;100.00
19128;BME280;9696;53.686;10.094;2023-08-31T12:16:21;100513.50;;;19.48;100.00
19128;BME280;9696;53.686;10.094;2023-08-31T12:18:50;100515.19;;;19.56;100.00
19128;BME280;9696;53.686;10.094;2023-08-31T12:21:20;100511.94;;;19.60;100.00
19128;BME280;9696;53.686;10.094;2023-08-31T12:23:49;100519.25;;;18.32;100.00
19128;BME280;9696;53.686;10.094;2023-08-31T12:26:18;100509.16;;;19.75;100.00
19128;BME280;9696;53.686;10.094;2023-08-31T12:28:47;100515.75;;;19.86;100.00
19128;BME280;9696;53.686;10.094;2023-08-31T12:31:16;100510.28;;;20.81;100.00
19128;BME280;9696;53.686;10.094;2023-08-31T12:33:47;100516.50;;;19.39;100.00
19128;BME280;9696;53.686;10.094;2023-08-31T12:36:16;100517.03;;;18.00;100.00
19128;BME280;9696;53.686;10.094;2023-08-31T12:38:45;100525.44;;;18.04;100.00
19128;BME280;9696;53.686;10.094;2023-08-31T12:41:16;100534.59;;;17.05;100.00
19128;BME280;9696;53.686;10.094;2023-08-31T12:43:45;100533.81;;;17.19;100.00
19128;BME280;9696;53.686;10.094;2023-08-31T12:46:14;100537.50;;;16.95;100.00
19128;BME280;9696;53.686;10.094;2023-08-31T12:48:46;100533.50;;;17.96;100.00
19128;BME280;9696;53.686;10.094;2023-08-31T12:51:18;100543.19;;;17.44;100.00
19128;BME280;9696;53.686;10.094;2023-08-31T12:53:47;100548.94;;;17.48;100.00
19128;BME280;9696;53.686;10.094;2023-08-31T12:56:16;100551.38;;;17.58;100.00
19128;BME280;9696;53.686;10.094;2023-08-31T12:58:50;100562.22;;;17.11;100.00